createdAt,value
2022-09-11T00:02:25.527Z,97619.53
2022-09-11T00:06:30.597Z,97623.19
2022-09-11T00:10:38.406Z,97626.81
2022-09-11T00:14:42.119Z,97627.19
2022-09-11T00:18:47.526Z,97625.97
2022-09-11T00:22:51.231Z,97631.56
2022-09-11T00:26:54.692Z,97631.97
2022-09-11T00:31:02.566Z,97635.22
2022-09-11T00:35:08.795Z,97630.97
2022-09-11T00:39:13.340Z,97632.78
2022-09-11T00:43:18.296Z,97632.78
2022-09-11T00:47:21.759Z,97623.53
2022-09-11T00:51:30.748Z,97621.94
2022-09-11T00:55:38.453Z,97621.53
2022-09-11T00:59:45.593Z,97618.53
2022-09-11T01:03:49.114Z,97616.72
2022-09-11T01:07:56.168Z,97619.16
2022-09-11T01:12:06.817Z,97620.75
2022-09-11T01:16:19.882Z,97613.50
2022-09-11T01:20:32.020Z,97624.81
2022-09-11T01:24:55.262Z,97609.84
2022-09-11T01:29:05.459Z,97614.28
2022-09-11T01:33:18.790Z,97615.13
2022-09-11T01:37:26.405Z,97611.47
2022-09-11T01:41:35.474Z,97607.22
2022-09-11T01:45:42.821Z,97603.59
2022-09-11T01:49:51.922Z,97600.94
2022-09-11T01:53:59.926Z,97597.28
2022-09-11T01:58:08.218Z,97605.38
2022-09-11T02:02:15.248Z,97598.91
2022-09-11T02:10:33.513Z,97589.53
2022-09-11T02:14:41.424Z,97590.28
2022-09-11T02:18:56.776Z,97597.97
2022-09-11T02:23:00.543Z,97592.94
2022-09-11T02:27:07.512Z,97590.28
2022-09-11T02:31:11.411Z,97585.88
2022-09-11T02:35:17.471Z,97587.06
2022-09-11T02:39:36.889Z,97593.94
2022-09-11T02:43:52.582Z,97599.25
2022-09-11T02:48:07.026Z,97592.63
2022-09-11T02:52:21.376Z,97598.91
2022-09-11T02:56:31.354Z,97590.19
2022-09-11T03:00:35.478Z,97593.25
2022-09-11T03:04:38.936Z,97592.03
2022-09-11T03:08:43.739Z,97585.97
2022-09-11T03:12:47.166Z,97587.59
2022-09-11T03:16:50.414Z,97589.81
2022-09-11T03:20:53.925Z,97577.28
2022-09-11T03:24:59.277Z,97580.69
2022-09-11T03:29:02.508Z,97583.97
2022-09-11T03:33:05.572Z,97579.72
2022-09-11T03:37:09.130Z,97578.31
2022-09-11T03:41:13.988Z,97582.34
2022-09-11T03:45:17.703Z,97572.03
2022-09-11T03:49:21.354Z,97576.31
2022-09-11T03:53:24.914Z,97577.91
2022-09-11T03:57:30.326Z,97571.63
2022-09-11T04:01:33.862Z,97569.63
2022-09-11T04:05:37.265Z,97578.75
2022-09-11T04:09:40.338Z,97584.81
2022-09-11T04:13:45.501Z,97582.00
2022-09-11T04:17:49.745Z,97576.13
2022-09-11T04:21:53.683Z,97567.59
2022-09-11T04:25:56.746Z,97580.34
2022-09-11T04:30:01.668Z,97575.91
2022-09-11T04:34:05.433Z,97586.81
2022-09-11T04:38:09.761Z,97588.03
2022-09-11T04:42:13.301Z,97586.00
2022-09-11T04:46:19.407Z,97579.53
2022-09-11T04:50:22.899Z,97584.00
2022-09-11T04:54:26.416Z,97584.19
2022-09-11T04:58:29.908Z,97580.75
2022-09-11T05:02:34.878Z,97593.06
2022-09-11T05:06:38.469Z,97598.13
2022-09-11T05:10:42.790Z,97593.50
2022-09-11T05:14:46.206Z,97593.31
2022-09-11T05:18:53.928Z,97600.81
2022-09-11T05:22:57.251Z,97599.38
2022-09-11T05:27:00.693Z,97595.75
2022-09-11T05:31:13.026Z,97599.19
2022-09-11T05:35:18.090Z,97608.31
2022-09-11T05:39:21.100Z,97605.88
2022-09-11T05:43:24.920Z,97605.47
2022-09-11T05:47:28.411Z,97612.53
2022-09-11T05:51:36.319Z,97610.28
2022-09-11T05:55:39.927Z,97605.44
2022-09-11T05:59:43.105Z,97610.28
2022-09-11T06:03:48.099Z,97615.75
2022-09-11T06:07:52.910Z,97617.81
2022-09-11T06:11:57.102Z,97606.69
2022-09-11T06:16:00.846Z,97608.31
2022-09-11T06:20:04.482Z,97608.78
2022-09-11T06:24:10.170Z,97619.72
2022-09-11T06:28:13.663Z,97615.28
2022-09-11T06:32:17.079Z,97609.81
2022-09-11T06:36:21.363Z,97615.69
2022-09-11T06:40:26.781Z,97611.69
2022-09-11T06:44:30.346Z,97619.78
2022-09-11T06:48:34.009Z,97620.59
2022-09-11T06:52:37.770Z,97619.78
2022-09-11T06:56:42.427Z,97621.63
2022-09-11T07:00:45.951Z,97621.81
2022-09-11T07:04:49.652Z,97617.16
2022-09-11T07:08:54.315Z,97613.13
2022-09-11T07:12:58.682Z,97616.53
2022-09-11T07:17:02.105Z,97608.81
2022-09-11T07:21:09.305Z,97617.13
2022-09-11T07:25:12.779Z,97614.25
2022-09-11T07:29:18.614Z,97614.88
2022-09-11T07:33:23.187Z,97620.13
2022-09-11T07:37:26.975Z,97625.00
2022-09-11T07:41:31.805Z,97619.72
2022-09-11T07:45:36.942Z,97628.63
2022-09-11T07:49:40.872Z,97631.06
2022-09-11T07:53:46.326Z,97633.91
2022-09-11T07:57:51.110Z,97639.16
2022-09-11T08:01:56.911Z,97637.16
2022-09-11T08:10:26.515Z,97630.34
2022-09-11T08:14:31.358Z,97630.03
2022-09-11T08:18:37.767Z,97636.38
2022-09-11T08:22:42.853Z,97641.03
2022-09-11T08:26:48.925Z,97637.44
2022-09-11T08:30:58.463Z,97645.91
2022-09-11T08:35:02.863Z,97644.09
2022-09-11T08:39:06.779Z,97640.84
2022-09-11T08:43:21.972Z,97655.47
2022-09-11T08:47:29.803Z,97653.25
2022-09-11T08:51:34.357Z,97654.53
2022-09-11T08:55:40.249Z,97653.25
2022-09-11T09:00:07.559Z,97660.50
2022-09-11T09:04:30.692Z,97664.13
2022-09-11T09:08:48.916Z,97656.53
2022-09-11T09:13:00.438Z,97661.91
2022-09-11T09:17:08.090Z,97658.88
2022-09-11T09:21:16.716Z,97653.59
2022-09-11T09:25:24.093Z,97659.50
2022-09-11T09:29:37.592Z,97656.66
2022-09-11T09:33:45.609Z,97657.66
2022-09-11T09:37:49.255Z,97650.56
2022-09-11T09:42:21.222Z,97659.09
2022-09-11T09:46:36.202Z,97657.66
2022-09-11T09:50:42.250Z,97646.50
2022-09-11T09:54:50.271Z,97639.44
2022-09-11T09:59:03.304Z,97640.84
2022-09-11T10:03:21.063Z,97638.22
2022-09-11T10:07:25.083Z,97644.09
2022-09-11T10:11:30.607Z,97631.53
2022-09-11T10:15:40.953Z,97630.75
2022-09-11T10:19:45.386Z,97632.72
2022-09-11T10:23:52.747Z,97625.41
2022-09-11T10:28:02.844Z,97629.47
2022-09-11T10:32:07.660Z,97632.28
2022-09-11T10:36:12.403Z,97627.84
2022-09-11T10:40:24.519Z,97629.03
2022-09-11T10:44:30.356Z,97633.50
2022-09-11T10:48:35.121Z,97639.13
2022-09-11T10:52:51.310Z,97634.47
2022-09-11T10:57:13.818Z,97637.31
2022-09-11T11:01:17.560Z,97638.16
2022-09-11T11:05:28.947Z,97640.53
2022-09-11T11:09:51.878Z,97644.22
2022-09-11T11:14:09.239Z,97653.97
2022-09-11T11:18:24.437Z,97642.81
2022-09-11T11:22:49.873Z,97646.50
2022-09-11T11:27:10.175Z,97663.31
2022-09-11T11:31:28.193Z,97666.78
2022-09-11T11:35:37.850Z,97672.66
2022-09-11T11:39:58.106Z,97669.22
2022-09-11T11:44:04.732Z,97664.53
2022-09-11T11:48:14.357Z,97667.59
2022-09-11T11:52:31.828Z,97663.91
2022-09-11T11:56:42.700Z,97670.34
2022-09-11T12:00:55.248Z,97679.59
2022-09-11T12:05:01.467Z,97668.72
2022-09-11T12:09:06.932Z,97671.63
2022-09-11T12:13:17.040Z,97676.97
2022-09-11T12:17:26.533Z,97683.50
2022-09-11T12:21:44.397Z,97682.72
2022-09-11T12:25:51.708Z,97676.47
2022-09-11T12:29:59.612Z,97676.41
2022-09-11T12:34:03.125Z,97672.13
2022-09-11T12:38:20.132Z,97673.00
2022-09-11T12:42:48.416Z,97661.03
2022-09-11T12:47:20.210Z,97666.28
2022-09-11T12:51:27.537Z,97668.91
2022-09-11T12:55:35.954Z,97662.56
2022-09-11T12:59:42.974Z,97672.63
2022-09-11T13:04:03.483Z,97662.88
2022-09-11T13:08:15.832Z,97667.94
2022-09-11T13:12:53.732Z,97677.47
2022-09-11T13:16:58.526Z,97671.09
2022-09-11T13:21:15.278Z,97679.59
2022-09-11T13:25:20.522Z,97678.69
2022-09-11T13:29:27.357Z,97678.09
2022-09-11T13:33:32.775Z,97681.47
2022-09-11T13:37:42.638Z,97680.31
2022-09-11T13:41:48.622Z,97693.38
2022-09-11T13:46:11.603Z,97688.38
2022-09-11T13:50:18.272Z,97685.03
2022-09-11T13:54:29.893Z,97684.00
2022-09-11T13:58:36.272Z,97683.59
2022-09-11T14:02:50.675Z,97685.72
2022-09-11T14:11:15.888Z,97691.81
2022-09-11T14:15:26.800Z,97697.88
2022-09-11T14:19:33.890Z,97698.44
2022-09-11T14:23:44.570Z,97691.09
2022-09-11T14:27:49.633Z,97691.66
2022-09-11T14:31:53.963Z,97678.09
2022-09-11T14:36:07.858Z,97679.53
2022-09-11T14:40:17.737Z,97672.31
2022-09-11T14:44:22.667Z,97675.44
2022-09-11T14:48:27.611Z,97685.00
2022-09-11T14:52:31.200Z,97695.28
2022-09-11T14:56:34.850Z,97684.81
2022-09-11T15:00:40.010Z,97684.50
2022-09-11T15:04:43.276Z,97673.19
2022-09-11T15:08:47.292Z,97665.81
2022-09-11T15:12:51.082Z,97676.56
2022-09-11T15:16:58.662Z,97685.25
2022-09-11T15:21:01.854Z,97703.91
2022-09-11T15:25:05.776Z,97699.97
2022-09-11T15:29:10.180Z,97699.22
2022-09-11T15:33:15.123Z,97701.19
2022-09-11T15:37:18.885Z,97700.44
2022-09-11T15:41:23.139Z,97694.09
2022-09-11T15:45:26.636Z,97689.84
2022-09-11T15:49:32.413Z,97701.41
2022-09-11T15:53:36.703Z,97700.88
2022-09-11T15:57:40.417Z,97706.66
2022-09-11T16:01:44.632Z,97701.44
2022-09-11T16:05:49.586Z,97711.78
2022-09-11T16:09:53.197Z,97720.09
2022-09-11T16:13:56.728Z,97735.09
2022-09-11T16:18:00.334Z,97743.19
2022-09-11T16:22:07.116Z,97747.63
2022-09-11T16:26:12.579Z,97741.31
2022-09-11T16:30:41.727Z,97746.00
2022-09-11T16:34:39.975Z,97744.81
2022-09-11T16:38:45.337Z,97742.88
2022-09-11T16:42:48.538Z,97737.53
2022-09-11T16:46:52.474Z,97748.22
2022-09-11T16:50:57.631Z,97732.28
2022-09-11T16:55:02.672Z,97740.72
2022-09-11T16:59:07.035Z,97744.72
2022-09-11T17:03:10.465Z,97746.44
2022-09-11T17:07:14.008Z,97751.38
2022-09-11T17:11:21.617Z,97742.28
2022-09-11T17:15:25.887Z,97738.06
2022-09-11T17:19:28.969Z,97736.50
2022-09-11T17:23:33.193Z,97740.16
2022-09-11T17:27:38.342Z,97749.31
2022-09-11T17:31:42.146Z,97757.81
2022-09-11T17:35:45.723Z,97762.50
2022-09-11T17:39:48.864Z,97762.88
2022-09-11T17:43:53.910Z,97773.19
2022-09-11T17:47:57.637Z,97775.44
2022-09-11T17:52:01.190Z,97769.75
2022-09-11T17:56:06.794Z,97784.38
2022-09-11T18:00:13.380Z,97783.34
2022-09-11T18:04:19.908Z,97792.88
2022-09-11T18:08:23.906Z,97797.31
2022-09-11T18:12:29.164Z,97794.50
2022-09-11T18:16:34.157Z,97788.22
2022-09-11T18:20:37.604Z,97789.84
2022-09-11T18:24:41.105Z,97795.31
2022-09-11T18:28:45.151Z,97801.00
2022-09-11T18:32:50.505Z,97805.88
2022-09-11T18:36:54.355Z,97800.38
2022-09-11T18:41:00.169Z,97802.41
2022-09-11T18:45:03.719Z,97794.91
2022-09-11T18:49:09.048Z,97798.16
2022-09-11T18:53:13.428Z,97804.22
2022-09-11T18:57:16.489Z,97804.63
2022-09-11T19:01:22.905Z,97805.84
2022-09-11T19:05:28.414Z,97807.28
2022-09-11T19:09:32.279Z,97817.19
2022-09-11T19:13:36.433Z,97819.63
2022-09-11T19:17:40.346Z,97815.97
2022-09-11T19:21:47.813Z,97825.91
2022-09-11T19:25:50.944Z,97825.69
2022-09-11T19:29:55.610Z,97829.72
2022-09-11T19:34:01.809Z,97831.34
2022-09-11T19:38:07.641Z,97830.94
2022-09-11T19:42:11.484Z,97830.31
2022-09-11T19:46:18.411Z,97835.97
2022-09-11T19:50:23.362Z,97835.16
2022-09-11T19:54:28.236Z,97833.72
2022-09-11T19:58:32.164Z,97836.94
2022-09-11T20:02:35.920Z,97831.69
2022-09-11T20:06:39.886Z,97841.38
2022-09-11T20:10:47.337Z,97844.19
2022-09-11T20:14:51.170Z,97845.63
2022-09-11T20:18:56.569Z,97848.25
2022-09-11T20:23:00.801Z,97852.88
2022-09-11T20:27:07.037Z,97852.88
2022-09-11T20:31:14.575Z,97841.72
2022-09-11T20:35:18.827Z,97849.63
2022-09-11T20:39:23.359Z,97858.34
2022-09-11T20:43:28.847Z,97859.16
2022-09-11T20:47:31.893Z,97860.16
2022-09-11T20:51:35.748Z,97856.91
2022-09-11T20:55:38.688Z,97858.09
2022-09-11T20:59:44.404Z,97852.78
2022-09-11T21:03:49.045Z,97848.06
2022-09-11T21:07:52.961Z,97856.34
2022-09-11T21:11:56.417Z,97863.41
2022-09-11T21:16:01.434Z,97863.53
2022-09-11T21:20:05.170Z,97866.34
2022-09-11T21:24:12.473Z,97869.72
2022-09-11T21:28:15.615Z,97852.91
2022-09-11T21:32:20.615Z,97862.38
2022-09-11T21:36:24.390Z,97864.94
2022-09-11T21:40:27.312Z,97869.34
2022-09-11T21:44:30.377Z,97871.56
2022-09-11T21:48:36.805Z,97864.66
2022-09-11T21:52:39.766Z,97865.47
2022-09-11T21:56:46.271Z,97849.28
2022-09-11T22:00:50.675Z,97855.78
2022-09-11T22:04:55.389Z,97857.38
2022-09-11T22:08:59.102Z,97846.88
2022-09-11T22:13:02.488Z,97856.19
2022-09-11T22:17:06.221Z,97851.75
2022-09-11T22:21:12.253Z,97855.03
2022-09-11T22:25:15.729Z,97849.75
2022-09-11T22:29:19.007Z,97848.94
2022-09-11T22:33:22.452Z,97860.28
2022-09-11T22:37:26.801Z,97850.56
2022-09-11T22:41:30.239Z,97855.03
2022-09-11T22:45:34.045Z,97859.88
2022-09-11T22:49:37.412Z,97856.25
2022-09-11T22:53:42.621Z,97858.50
2022-09-11T22:57:46.136Z,97856.47
2022-09-11T23:01:49.386Z,97849.41
2022-09-11T23:06:14.433Z,97845.78
2022-09-11T23:10:21.527Z,97846.59
2022-09-11T23:14:24.574Z,97850.25
2022-09-11T23:18:29.101Z,97843.91
2022-09-11T23:22:32.871Z,97849.78
2022-09-11T23:26:37.712Z,97849.78
2022-09-11T23:30:41.426Z,97847.72
2022-09-11T23:34:44.626Z,97849.13
2022-09-11T23:38:49.752Z,97851.50
2022-09-11T23:42:54.100Z,97839.94
2022-09-11T23:46:57.827Z,97846.00
2022-09-11T23:51:01.891Z,97845.38
2022-09-11T23:55:05.471Z,97839.50
2022-09-11T23:59:10.261Z,97848.66
